*** The Vicarage Weather Feed ***

Nearby METAR Reports


 

CYOO - Oshawa, Municipal Airport, Ontario, Canada
Distance from station: NW 3.2km
Updated: 22/07/2019 07:00
Overcast
Overcast
 Wind from N
Wind: N 6 km/h
Temperature: 19°C
Dew Point: 16°C
Humidity: 83%
Barometer: 1011.5 hPa
Clouds: Overcast
Visibility: 14 km
Cloud details: Mostly cloudy 3658 m
Mostly cloudy 4572 m
Overcast 5182 m
2019/07/22 11:00 CYOO 221100Z AUTO 36003KT 9SM BKN120 BKN150 OVC170 19/16 A2987 RMK SLP116 DENSITY ALT 1000FT
CYKZ - Toronto, Buttonville, Municipal Airport, Ontario, Canada
Distance from station: W 39.75km
Updated: 03/01/2019 04:00
NOT Current
Partly cloudy
Partly cloudy
 Wind from WSW
Wind: WSW 7 km/h
Temperature: -3°C
Wind Chill: -6°C
Dew Point: -5°C
Humidity: 86%
Barometer: 1010.8 hPa
Clouds: Partly cloudy
Visibility: 24 km
Cloud details: Partly cloudy 1219 m
2019/01/03 09:00 CYKZ 030900Z 25004KT 15SM SCT040 M03/M05 A2985 RMK SC3 LAST STFD OBS FAREWELL SLP118
 
CXTO - Toronto City, Buttonville, Ontario, Canada
Distance from station: WSW 49km
Updated: 22/07/2019 07:00

 
Temperature: 20°C
Dew Point: 14°C
Humidity: 69%
2019/07/22 11:00 CXTO 221100Z AUTO 20/14 RMK AO1 SLP118 T01950139 55004
CYTZ - Toronto City, Island Airport, Ontario, Canada
Distance from station: SW 51.7km
Updated: 22/07/2019 07:35
Mostly cloudy
Mostly cloudy
 Wind from S
Wind: S 6 km/h
Temperature: 18°C
Dew Point: 15°C
Humidity: 83%
Barometer: 1011.9 hPa
Clouds: Mostly cloudy
Visibility: 14 km
Cloud details: Mostly cloudy 3962 m
Mostly cloudy 5486 m
2019/07/22 11:35 CYTZ 221135Z AUTO 17003KT 150V250 9SM BKN130 BKN180 18/15 A2988 RMK SLP118 DENSITY ALT 600FT
 
CYPQ - Toronto, Peterborough Airport, Ontario, Canada
Distance from station: NE 54km
Updated: 22/07/2019 07:00
Overcast
Overcast
 Wind from NNE
Wind: NNE 6 km/h
Temperature: 18°C
Dew Point: 16°C
Humidity: 88%
Barometer: 1012.2 hPa
Clouds: Overcast
Visibility: 14 km
Cloud details: Mostly cloudy 3962 m
Mostly cloudy 5486 m
Overcast 6096 m
2019/07/22 11:00 CYPQ 221100Z AUTO 02003KT 9SM BKN130 BKN180 OVC200 18/16 A2989 RMK SLP122 DENSITY ALT 1100FT
CWNC - Cobourg, (mars), Ontario, Canada
Distance from station: E 57km
Updated: 22/07/2019 07:00

 Wind from WNW
Wind: WNW 2 km/h
Temperature: 14°C
Dew Point: 11°C
Humidity: 82%
2019/07/22 11:00 CWNC 221100Z AUTO 29001KT 14/11 RMK AO1 SLP114 T01390114 53003
 
CYYZ - Toronto, Lester Pearson Airport, Ontario, Canada
Distance from station: W 65.5km
Updated: 22/07/2019 07:24
Overcast
Overcast
 Wind from ENE
Wind: ENE 19 km/h
Temperature: 19°C
Dew Point: 15°C
Humidity: 78%
Barometer: 1011.9 hPa
Clouds: Overcast
Visibility: 24 km
Cloud details: Few Clouds 1829 m
Partly cloudy 3353 m
Overcast 4877 m
2019/07/22 11:24 CYYZ 221124Z 06010KT 15SM FEW060 SCT110 OVC160 19/15 A2988 RMK SC2AC2AC4 SLP118 DENSITY ALT 1300FT
CWGL - Lagoon City, Ontario, Canada
Distance from station: NNW 74km
Updated: 22/07/2019 07:00

 Wind from NE
Wind: NE 7 km/h
Temperature: 18°C
Dew Point: 15°C
Humidity: 83%
2019/07/22 11:00 CWGL 221100Z AUTO 04004KT 18/15 RMK AO1 SLP122 T01760148 53002
 
CWWZ - Port Weller Airport, Ontario, Canada
Distance from station: SSW 77km
Updated: 22/07/2019 07:00

 Wind from SSW
Wind: SSW 4 km/h
Temperature: 19°C
Dew Point: 17°C
Humidity: 88%
2019/07/22 11:00 CWWZ 221100Z AUTO 21002KT 19/17 RMK AO1 SLP114 T01940173 56006
CYSN - St.Catharines Niagara Airport, Ontario, Canada
Distance from station: SSW 81km
Updated: 22/07/2019 07:00
Light rain, Overcast
Light rain, Overcast
 Wind from SSE
Wind: SSE 9 km/h
Temperature: 19°C
Dew Point: 19°C
Humidity: 100%
Barometer: 1011.5 hPa
Summary: Light rain
Clouds: Overcast
Visibility: 19 km
Cloud details: Partly cloudy 1524 m
Overcast 3962 m
2019/07/22 11:00 CYSN 221100Z 15005KT 12SM -RA SCT050 OVC130 19/19 A2987 RMK SC4AC4 SLP114 DENSITY ALT 1000FT
This data is offered only as a general guide to local weather conditions. It should not be relied upon in lieu of officially disseminated weather information for determining possible risk to persons or property. This site, including all information contained therein, is made available as is without warranties of any kind, either express or implied. The Vicarage Weather Feed© includes links to other sites for user convenience only. The content of any linked third-party site is not controlled by The Vicarage Weather Feed©. Access to any third-party website through The Vicarage Weather Feed©, regardless of whether or not the third-party site is a linked site, is entirely at the users own risk. Externally sourced content or material is excluded from The Vicarage Weather Feed© copyright and is the copyright and property of the respective provider. Skywarn® and the Skywarn® logo are registered trademarks of the National Oceanic and Atmospheric Administration, used with permission.